Time;durP1;ratioP1;P1;durP2;ratioP2;P2;SDS_P1;SDS_P2;PMS_P1;PMS_P2;Temp;Humidity;BMP_temperature;BMP_pressure;BME280_temperature;BME280_humidity;BME280_pressure;Samples;Min_cycle;Max_cycle;Signal;HPM_P1;HPM_P2
2022/08/18 00:01:48;;;;;;;13.90;9.10;;;;;;;29.11;45.70;101407.59;5064371;28;20033;-77
2022/08/18 00:04:14;;;;;;;11.77;9.10;;;;;;;29.59;44.41;101406.47;5038349;28;20135;-77
2022/08/18 00:06:40;;;;;;;12.18;8.45;;;;;;;29.22;45.62;101406.72;5046091;28;20384;-77
2022/08/18 00:09:08;;;;;;;11.05;9.27;;;;;;;29.79;43.98;101403.97;5053055;28;20041;-77
2022/08/18 00:11:40;;;;;;;12.93;9.70;;;;;;;29.06;45.66;101403.56;5035909;28;20052;-77
2022/08/18 00:14:06;;;;;;;11.02;8.65;;;;;;;28.89;45.94;101399.50;5033307;28;20055;-77
2022/08/18 00:16:32;;;;;;;14.57;8.75;;;;;;;29.05;45.38;101396.47;5034690;28;20024;-77
2022/08/18 00:18:58;;;;;;;18.98;10.20;;;;;;;28.73;46.16;101397.19;5037552;28;20116;-77
2022/08/18 00:21:23;;;;;;;15.38;9.65;;;;;;;29.51;44.40;101386.50;5053503;28;20028;-77
2022/08/18 00:23:49;;;;;;;14.93;10.25;;;;;;;29.19;45.22;101387.28;5051458;28;20024;-78
2022/08/18 00:26:14;;;;;;;15.82;12.43;;;;;;;28.07;47.87;101389.66;5034274;28;20031;-77
2022/08/18 00:28:40;;;;;;;13.88;11.77;;;;;;;27.92;49.10;101388.94;5039854;28;20449;-77
2022/08/18 00:31:05;;;;;;;16.95;14.50;;;;;;;28.22;48.56;101392.97;5046002;28;20021;-77
2022/08/18 00:33:31;;;;;;;23.00;14.55;;;;;;;28.64;47.10;101387.13;5069806;28;20035;-77
2022/08/18 00:35:56;;;;;;;18.40;14.88;;;;;;;29.05;46.52;101391.06;5040242;28;20436;-77
2022/08/18 00:38:21;;;;;;;22.52;15.30;;;;;;;29.28;45.39;101387.41;5036585;28;20055;-77
2022/08/18 00:40:50;;;;;;;24.20;16.95;;;;;;;29.28;45.47;101387.41;5059819;28;20055;-77
2022/08/18 00:43:44;;;;;;;26.35;17.75;;;;;;;29.07;45.97;101386.41;5054944;28;20044;-77
2022/08/18 00:46:15;;;;;;;24.98;17.00;;;;;;;29.34;45.19;101393.28;5040129;28;20048;-77
2022/08/18 00:48:41;;;;;;;21.58;16.52;;;;;;;29.24;45.30;101396.72;5031994;28;20057;-77
2022/08/18 00:51:15;;;;;;;23.02;17.95;;;;;;;29.29;44.96;101388.25;5051674;28;20057;-77
2022/08/18 00:53:49;;;;;;;23.95;16.50;;;;;;;29.02;45.63;101404.78;5051798;28;20075;-77
2022/08/18 00:56:23;;;;;;;25.58;17.42;;;;;;;29.40;44.40;101400.84;5040883;28;20182;-77
2022/08/18 00:58:54;;;;;;;24.23;17.63;;;;;;;29.46;44.48;101405.75;5037364;28;20104;-77
2022/08/18 01:01:22;;;;;;;20.90;16.30;;;;;;;29.11;45.09;101412.97;5037022;28;20029;-77
2022/08/18 01:03:52;;;;;;;20.98;16.27;;;;;;;29.39;44.75;101402.69;5069169;28;20499;-77
2022/08/18 01:06:31;;;;;;;19.42;15.02;;;;;;;28.99;45.52;101415.75;5045840;28;20040;-77
2022/08/18 01:08:56;;;;;;;23.35;17.52;;;;;;;28.59;46.74;101417.03;5038206;28;20519;-77
2022/08/18 01:11:22;;;;;;;23.98;16.50;;;;;;;28.95;45.92;101407.09;5035955;28;20078;-75
2022/08/18 01:13:47;;;;;;;21.48;16.33;;;;;;;29.18;45.14;101397.19;5035770;28;20406;-77
2022/08/18 01:21:50;;;;;;;20.65;14.75;;;;;;;29.21;44.51;101418.47;5054913;28;20048;-78
2022/08/18 01:24:20;;;;;;;18.10;14.75;;;;;;;29.37;44.48;101409.19;5043257;28;20381;-77
2022/08/18 01:26:49;;;;;;;18.35;14.27;;;;;;;29.28;44.69;101408.94;5060137;28;20043;-77
2022/08/18 01:29:17;;;;;;;18.02;14.75;;;;;;;28.92;45.40;101408.19;5054103;28;20040;-77
2022/08/18 01:31:54;;;;;;;19.95;15.45;;;;;;;29.18;44.62;101413.34;5052081;28;20032;-77
2022/08/18 01:34:23;;;;;;;20.45;15.00;;;;;;;29.24;44.35;101414.69;5063293;28;20029;-77
2022/08/18 01:36:51;;;;;;;17.10;14.70;;;;;;;29.18;44.77;101418.72;5047517;28;20427;-77
2022/08/18 01:39:17;;;;;;;19.73;15.50;;;;;;;29.41;43.71;101413.34;5039910;28;20067;-77
2022/08/18 01:41:43;;;;;;;19.52;14.32;;;;;;;28.85;44.79;101401.59;5056839;28;20049;-77
2022/08/18 01:44:10;;;;;;;18.92;14.30;;;;;;;29.16;44.40;101403.69;5039630;28;20078;-78
2022/08/18 01:46:40;;;;;;;18.45;14.40;;;;;;;29.79;43.14;101412.88;5042635;28;20017;-77
2022/08/18 01:49:07;;;;;;;21.30;14.35;;;;;;;29.94;42.40;101421.56;5035900;28;20465;-77
2022/08/18 01:51:33;;;;;;;20.70;15.20;;;;;;;29.22;43.86;101430.97;5036522;28;20025;-77
2022/08/18 01:54:00;;;;;;;19.15;14.45;;;;;;;29.16;43.79;101431.44;5034731;28;21459;-77
2022/08/18 01:56:26;;;;;;;22.63;15.85;;;;;;;28.83;44.49;101430.44;5050070;28;20021;-77
2022/08/18 01:58:54;;;;;;;18.65;15.15;;;;;;;28.81;44.88;101440.47;5051752;28;20028;-77
2022/08/18 02:01:20;;;;;;;20.08;16.15;;;;;;;28.91;44.42;101438.75;5045534;28;20029;-77
2022/08/18 02:03:50;;;;;;;20.00;16.20;;;;;;;28.80;44.97;101436.06;5039531;28;20480;-77
2022/08/18 02:06:19;;;;;;;25.83;15.55;;;;;;;29.07;43.76;101441.09;5043572;28;20025;-77
2022/08/18 02:08:45;;;;;;;23.15;16.17;;;;;;;29.38;43.51;101438.66;5061518;28;20041;-77
2022/08/18 02:11:11;;;;;;;25.52;15.25;;;;;;;29.21;43.38;101437.31;5055172;28;20029;-77
2022/08/18 02:13:37;;;;;;;21.48;16.08;;;;;;;28.89;44.35;101435.34;5034752;28;20082;-77
2022/08/18 02:16:03;;;;;;;27.27;18.17;;;;;;;28.67;45.37;101435.28;5039602;28;20055;-77
2022/08/18 02:18:31;;;;;;;20.60;15.95;;;;;;;28.87;44.76;101426.53;5057595;28;20321;-78
2022/08/18 02:21:04;;;;;;;19.75;15.88;;;;;;;28.75;44.72;101432.88;5038764;28;20523;-77
2022/08/18 02:23:29;;;;;;;28.83;18.05;;;;;;;28.81;44.52;101432.41;5053033;28;20037;-77
2022/08/18 02:25:54;;;;;;;26.27;18.27;;;;;;;28.84;44.91;101426.78;5044899;28;20031;-78
2022/08/18 02:28:20;;;;;;;27.90;17.75;;;;;;;28.81;44.99;101439.59;5071892;28;20568;-76
2022/08/18 02:30:45;;;;;;;21.60;18.40;;;;;;;28.80;45.01;101438.75;5067423;28;20025;-77
2022/08/18 02:33:10;;;;;;;22.77;17.15;;;;;;;28.86;44.60;101430.19;5057038;28;20755;-77
2022/08/18 02:35:37;;;;;;;22.85;16.58;;;;;;;28.76;44.83;101434.59;5042027;28;20086;-77
2022/08/18 02:38:05;;;;;;;23.52;17.58;;;;;;;28.86;44.56;101419.44;5049953;28;20453;-77
2022/08/18 02:40:34;;;;;;;23.90;16.85;;;;;;;28.90;44.43;101431.66;5044579;28;20051;-77
2022/08/18 02:43:07;;;;;;;26.17;18.58;;;;;;;28.90;44.59;101428.97;5052787;28;20077;-77
2022/08/18 02:45:33;;;;;;;28.15;18.98;;;;;;;28.75;44.56;101440.94;5068024;28;20028;-77
2022/08/18 02:47:59;;;;;;;26.70;18.23;;;;;;;29.05;43.78;101439.50;5043223;28;20036;-77
2022/08/18 02:50:25;;;;;;;20.08;17.00;;;;;;;28.87;44.24;101426.53;5034512;28;20054;-77
2022/08/18 02:52:50;;;;;;;24.23;17.95;;;;;;;28.93;44.02;101423.38;5043061;28;20100;-77
2022/08/18 02:55:15;;;;;;;25.33;19.15;;;;;;;28.86;43.88;101429.34;5042503;28;20020;-77
2022/08/18 02:57:43;;;;;;;27.15;19.23;;;;;;;28.71;44.73;101439.47;5037257;28;20028;-77
2022/08/18 03:00:12;;;;;;;21.33;18.98;;;;;;;29.06;43.97;101435.84;5035578;28;20021;-77
2022/08/18 03:02:37;;;;;;;23.77;18.65;;;;;;;28.88;44.02;101432.75;5050116;28;20032;-77
2022/08/18 03:05:04;;;;;;;24.27;19.95;;;;;;;28.74;44.64;101431.13;5034476;28;20029;-77
2022/08/18 03:07:30;;;;;;;25.10;19.83;;;;;;;28.73;44.27;101441.06;5040395;28;20064;-77
2022/08/18 03:09:55;;;;;;;23.45;18.63;;;;;;;28.86;44.12;101440.94;5037378;28;20051;-77
2022/08/18 03:12:20;;;;;;;20.92;18.30;;;;;;;28.97;43.99;101441.94;5035903;28;20017;-77
2022/08/18 03:14:46;;;;;;;24.27;19.00;;;;;;;28.96;43.98;101440.22;5055822;28;20032;-77
2022/08/18 03:17:13;;;;;;;22.67;17.83;;;;;;;28.67;44.30;101451.44;5046031;28;20035;-77
2022/08/18 03:19:39;;;;;;;25.00;19.88;;;;;;;28.65;44.90;101458.78;5051981;28;20028;-77
2022/08/18 03:22:07;;;;;;;22.85;18.38;;;;;;;28.60;44.67;101465.31;5062250;28;20404;-77
2022/08/18 03:24:33;;;;;;;24.80;18.00;;;;;;;28.92;44.10;101462.00;5068220;28;20020;-77
2022/08/18 03:27:02;;;;;;;25.55;18.17;;;;;;;28.73;44.69;101450.97;5069159;28;20115;-78
2022/08/18 03:29:27;;;;;;;29.25;18.70;;;;;;;28.78;43.91;101456.81;5034093;28;20017;-78
2022/08/18 03:31:53;;;;;;;20.35;18.02;;;;;;;28.65;44.51;101453.41;5033661;28;20021;-78
2022/08/18 03:34:19;;;;;;;19.67;17.15;;;;;;;28.60;44.81;101451.00;5034278;28;20064;-77
2022/08/18 03:36:46;;;;;;;23.15;18.38;;;;;;;29.09;43.45;101446.34;5061648;28;20028;-77
2022/08/18 03:39:12;;;;;;;25.42;17.63;;;;;;;29.01;43.79;101438.88;5045917;28;20388;-77
2022/08/18 03:41:42;;;;;;;23.73;17.70;;;;;;;28.84;44.22;101450.97;5041314;28;20040;-77
2022/08/18 03:44:08;;;;;;;22.95;18.10;;;;;;;28.78;44.27;101448.75;5073087;28;20480;-78
2022/08/18 03:46:33;;;;;;;21.45;17.95;;;;;;;29.09;43.43;101446.34;5058559;28;20035;-77
2022/08/18 03:49:00;;;;;;;22.10;18.95;;;;;;;28.54;45.12;101456.88;5057276;28;20024;-77
2022/08/18 03:51:28;;;;;;;21.48;16.80;;;;;;;28.57;44.61;101452.09;5060386;28;20043;-77
2022/08/18 03:53:59;;;;;;;20.80;16.73;;;;;;;28.69;44.77;101454.88;5054093;28;20024;-78
2022/08/18 03:56:27;;;;;;;19.08;16.45;;;;;;;28.63;44.83;101452.59;5060298;28;20026;-77
2022/08/18 03:58:56;;;;;;;20.38;15.35;;;;;;;28.68;44.77;101453.16;5062095;28;20020;-77
2022/08/18 04:01:25;;;;;;;21.55;14.82;;;;;;;29.04;44.12;101456.63;5060353;28;20392;-77
2022/08/18 04:03:55;;;;;;;19.08;14.95;;;;;;;28.63;45.08;101457.97;5070917;28;20020;-77
2022/08/18 04:06:24;;;;;;;20.90;14.77;;;;;;;28.67;45.04;101452.28;5052695;28;20400;-77
2022/08/18 04:08:51;;;;;;;18.25;14.52;;;;;;;28.80;44.89;101445.94;5071774;28;20028;-77
2022/08/18 04:11:17;;;;;;;21.55;16.00;;;;;;;28.98;44.06;101443.66;5072965;28;20024;-77
2022/08/18 04:13:43;;;;;;;17.48;14.43;;;;;;;29.05;44.35;101450.28;5062804;28;20039;-77
2022/08/18 04:16:09;;;;;;;18.80;14.27;;;;;;;28.70;44.61;101451.19;5064426;28;20085;-77
2022/08/18 04:18:35;;;;;;;14.70;12.85;;;;;;;29.02;43.87;101439.75;5057106;28;20025;-77
2022/08/18 04:21:02;;;;;;;15.50;12.77;;;;;;;29.01;43.61;101443.41;5056942;28;20039;-77
2022/08/18 04:23:28;;;;;;;16.77;13.82;;;;;;;28.55;44.90;101443.31;5089951;28;20032;-77
2022/08/18 04:25:58;;;;;;;18.75;15.65;;;;;;;28.35;45.45;101435.91;5067804;28;20035;-77
2022/08/18 04:28:24;;;;;;;19.63;16.60;;;;;;;28.41;45.57;101435.44;5065455;28;20035;-78
2022/08/18 04:30:51;;;;;;;20.95;14.55;;;;;;;28.39;46.00;101427.47;5058091;28;20030;-78
2022/08/18 04:33:16;;;;;;;20.15;15.27;;;;;;;28.04;46.92;101427.47;5074769;28;20073;-78
2022/08/18 04:35:42;;;;;;;17.70;14.38;;;;;;;28.39;45.96;101421.25;5073880;28;20044;-77
2022/08/18 04:38:08;;;;;;;16.20;13.80;;;;;;;27.77;47.14;101425.84;5057588;28;20028;-77
2022/08/18 04:40:35;;;;;;;18.83;13.63;;;;;;;28.64;44.97;101435.53;5064978;28;20086;-78
2022/08/18 04:43:01;;;;;;;20.88;14.38;;;;;;;28.36;46.07;101432.25;5068767;28;20504;-77
2022/08/18 04:45:27;;;;;;;16.70;14.45;;;;;;;28.48;45.58;101436.69;5045642;28;20029;-77
2022/08/18 04:47:52;;;;;;;20.23;14.57;;;;;;;28.39;45.11;101432.00;5045767;28;20060;-78
2022/08/18 04:50:18;;;;;;;19.63;13.30;;;;;;;28.08;46.15;101434.31;5043826;28;20137;-78
2022/08/18 04:55:28;;;;;;;15.68;12.68;;;;;;;28.58;45.30;101435.00;5070719;28;20043;-78
2022/08/18 04:57:54;;;;;;;15.68;11.43;;;;;;;28.92;44.07;101427.03;5042353;28;20119;-78
2022/08/18 05:00:19;;;;;;;17.63;12.93;;;;;;;29.34;43.21;101429.13;5055200;28;20036;-78
2022/08/18 05:02:45;;;;;;;17.15;12.20;;;;;;;28.89;44.73;101447.91;5049958;28;20028;-78
2022/08/18 05:05:10;;;;;;;16.23;11.90;;;;;;;28.79;44.56;101439.72;5045520;28;20458;-77
2022/08/18 05:07:42;;;;;;;16.98;12.50;;;;;;;28.54;45.47;101443.44;5036838;28;20029;-78
2022/08/18 05:10:08;;;;;;;14.40;11.98;;;;;;;28.23;45.87;101449.31;5036195;28;20039;-78
2022/08/18 05:12:34;;;;;;;17.35;12.77;;;;;;;28.15;46.68;101446.34;5040380;28;20028;-78
2022/08/18 05:14:59;;;;;;;19.10;14.35;;;;;;;28.39;46.32;101448.16;5074587;28;20060;-78
2022/08/18 05:17:27;;;;;;;17.75;12.38;;;;;;;28.58;45.42;101443.06;5043442;28;20025;-78
2022/08/18 05:19:52;;;;;;;16.63;12.27;;;;;;;28.91;44.36;101454.91;5055390;28;20060;-78
2022/08/18 05:22:19;;;;;;;15.10;11.82;;;;;;;28.63;44.92;101452.59;5072629;28;20048;-78
2022/08/18 05:24:45;;;;;;;14.50;12.20;;;;;;;28.49;45.34;101449.13;5046550;28;20061;-78
2022/08/18 05:27:12;;;;;;;16.27;11.57;;;;;;;28.88;44.36;101460.53;5046476;28;20024;-78
2022/08/18 05:29:37;;;;;;;14.10;12.57;;;;;;;29.01;44.53;101454.19;5043975;28;20040;-78
2022/08/18 05:32:06;;;;;;;13.93;12.18;;;;;;;29.17;43.84;101449.28;5040577;28;20024;-78
2022/08/18 05:34:33;;;;;;;16.70;12.63;;;;;;;28.92;44.68;101456.63;5073269;28;20036;-78
2022/08/18 05:37:24;;;;;;;16.42;12.30;;;;;;;29.10;44.06;101453.47;5043278;28;20025;-78
2022/08/18 05:40:00;;;;;;;14.88;11.25;;;;;;;28.91;44.54;101448.66;5042724;28;20170;-78
2022/08/18 05:42:29;;;;;;;14.02;12.52;;;;;;;28.86;44.79;101451.69;5057167;28;20550;-78
2022/08/18 05:44:55;;;;;;;16.73;12.52;;;;;;;28.65;45.79;101448.84;5076188;28;20024;-78
2022/08/18 05:47:28;;;;;;;15.80;12.27;;;;;;;28.78;45.33;101459.50;5073080;28;20035;-78
2022/08/18 05:49:55;;;;;;;13.80;11.43;;;;;;;28.90;45.00;101457.72;5074605;28;20027;-78
2022/08/18 05:52:36;;;;;;;14.27;11.93;;;;;;;28.98;44.96;101454.44;5073249;28;20021;-78
2022/08/18 05:58:20;;;;;;;11.73;10.52;;;;;;;29.34;44.53;101439.06;5052084;28;20094;-78
2022/08/18 06:00:52;;;;;;;15.18;11.85;;;;;;;29.40;44.48;101435.84;5089315;28;20031;-79
2022/08/18 06:03:29;;;;;;;12.57;11.27;;;;;;;29.42;44.32;101436.59;5062140;28;20033;-79
2022/08/18 06:05:56;;;;;;;13.77;12.20;;;;;;;29.02;45.68;101429.00;5065814;28;20033;-78
2022/08/18 06:08:32;;;;;;;17.17;11.70;;;;;;;29.00;45.89;101441.69;5071345;28;20460;-79
2022/08/18 06:10:58;;;;;;;15.05;12.38;;;;;;;28.87;46.41;101448.03;5066437;28;20468;-78
2022/08/18 06:13:23;;;;;;;16.13;11.70;;;;;;;28.36;48.18;101451.06;5072176;28;20078;-78
2022/08/18 06:16:04;;;;;;;14.55;11.73;;;;;;;29.29;46.25;101452.84;5056281;28;20020;-78
2022/08/18 06:18:38;;;;;;;14.82;11.60;;;;;;;28.04;49.55;101448.97;5056387;28;20026;-78
2022/08/18 06:21:10;;;;;;;14.52;11.45;;;;;;;28.44;49.54;101451.34;5055912;28;20035;-79
2022/08/18 06:23:50;;;;;;;15.38;12.35;;;;;;;28.69;49.38;101444.13;5059310;28;20050;-78
2022/08/18 06:26:41;;;;;;;14.85;11.48;;;;;;;29.63;46.65;101443.91;5059173;28;20464;-78
2022/08/18 06:29:33;;;;;;;17.58;11.00;;;;;;;28.89;49.19;101440.72;5085721;28;20503;-79
2022/08/18 06:32:22;;;;;;;15.38;11.48;;;;;;;29.21;47.67;101445.38;5056149;28;20503;-78
2022/08/18 06:35:18;;;;;;;15.05;10.77;;;;;;;28.65;50.31;101448.00;5066554;28;20028;-79
2022/08/18 06:40:35;;;;;;;11.90;10.20;;;;;;;29.10;48.90;101442.69;5077620;28;20042;-79
2022/08/18 06:43:01;;;;;;;14.38;9.82;;;;;;;29.65;47.26;101441.94;5058997;28;20037;-79
2022/08/18 06:45:32;;;;;;;11.85;10.18;;;;;;;29.95;46.61;101444.84;5058177;28;20038;-79
2022/08/18 06:48:18;;;;;;;14.98;9.52;;;;;;;30.10;46.16;101447.22;5055336;28;20032;-79
2022/08/18 06:50:52;;;;;;;16.20;10.07;;;;;;;29.97;46.61;101457.34;5054211;28;20090;-79
2022/08/18 06:53:19;;;;;;;14.90;10.63;;;;;;;29.81;47.58;101457.69;5073585;28;20074;-79
2022/08/18 06:55:48;;;;;;;11.38;9.90;;;;;;;30.18;46.34;101460.91;5055418;28;20024;-79
2022/08/18 06:58:16;;;;;;;13.80;10.52;;;;;;;30.32;45.58;101467.00;5073506;28;20030;-79
2022/08/18 07:01:06;;;;;;;13.20;9.57;;;;;;;30.13;46.66;101468.56;5054602;28;20024;-79
2022/08/18 07:03:38;;;;;;;14.60;11.10;;;;;;;29.25;49.92;101479.19;5055110;28;20089;-80
2022/08/18 07:06:23;;;;;;;13.77;10.70;;;;;;;30.10;47.09;101474.19;5079315;28;20040;-79
2022/08/18 07:08:54;;;;;;;11.57;8.95;;;;;;;30.60;45.63;101482.56;5072787;28;20036;-79
2022/08/18 07:11:24;;;;;;;11.02;9.10;;;;;;;30.58;45.71;101489.09;5075471;28;20034;-79
2022/08/18 07:13:53;;;;;;;11.52;8.45;;;;;;;29.27;48.42;101481.75;5075408;28;20111;-79
2022/08/18 07:16:26;;;;;;;10.02;7.63;;;;;;;30.17;46.46;101491.56;5075078;28;20133;-79
2022/08/18 07:18:51;;;;;;;11.98;6.70;;;;;;;31.09;45.46;101484.75;5080015;28;20036;-79
2022/08/18 07:21:29;;;;;;;8.88;6.70;;;;;;;33.10;40.62;101486.31;5073000;28;20032;-78
2022/08/18 07:24:06;;;;;;;10.52;6.15;;;;;;;31.86;42.15;101486.06;5054431;28;20032;-79
2022/08/18 07:27:02;;;;;;;6.55;5.88;;;;;;;32.83;41.76;101488.97;5054713;28;20025;-79
2022/08/18 07:29:34;;;;;;;10.73;5.95;;;;;;;32.20;41.27;101493.81;5054496;28;20050;-79
2022/08/18 07:32:18;;;;;;;5.50;4.60;;;;;;;32.93;39.73;101496.06;5072854;28;20033;-79
2022/08/18 07:34:50;;;;;;;5.75;4.70;;;;;;;32.78;39.93;101500.19;5073429;28;20031;-79
2022/08/18 07:37:23;;;;;;;5.90;4.05;;;;;;;32.81;39.37;101494.53;5092321;28;20427;-79
2022/08/18 07:39:58;;;;;;;5.95;4.25;;;;;;;33.65;38.83;101496.34;5073748;28;20027;-79
2022/08/18 07:42:54;;;;;;;7.63;4.43;;;;;;;34.34;37.95;101492.38;5074753;28;20040;-79
2022/08/18 07:45:45;;;;;;;6.88;4.20;;;;;;;34.69;35.93;101496.88;5054183;28;20127;-78
2022/08/18 07:48:15;;;;;;;5.72;4.25;;;;;;;34.67;36.12;101499.75;5055000;28;20158;-79
2022/08/18 07:50:54;;;;;;;6.63;3.97;;;;;;;34.79;36.27;101502.25;5073436;28;20107;-79
2022/08/18 07:53:25;;;;;;;6.97;3.80;;;;;;;35.49;34.78;101504.06;5053962;28;20039;-79
2022/08/18 07:56:01;;;;;;;5.13;4.22;;;;;;;35.03;34.15;101506.16;5062003;28;20060;-79
2022/08/18 07:58:41;;;;;;;6.15;3.85;;;;;;;35.25;34.40;101511.03;5072120;28;20039;-79
2022/08/18 08:01:12;;;;;;;5.95;4.07;;;;;;;35.17;34.89;101510.97;5062825;28;20035;-79
2022/08/18 08:03:53;;;;;;;4.15;3.33;;;;;;;36.06;33.28;101508.81;5069867;28;20024;-79
2022/08/18 08:06:42;;;;;;;3.15;2.75;;;;;;;37.18;31.26;101513.75;5070142;28;20548;-79
2022/08/18 08:09:28;;;;;;;4.30;2.67;;;;;;;34.18;34.26;101507.44;5071397;28;20028;-79
2022/08/18 08:11:57;;;;;;;2.85;2.63;;;;;;;35.80;32.93;101501.56;5083867;28;20561;-79
2022/08/18 08:14:34;;;;;;;3.53;3.08;;;;;;;35.71;33.03;101509.88;5070976;28;20055;-79
2022/08/18 08:17:10;;;;;;;5.47;2.55;;;;;;;35.95;32.89;101507.25;5073362;28;20042;-80
2022/08/18 08:19:50;;;;;;;3.60;2.30;;;;;;;35.92;32.30;101507.59;5092168;28;20019;-79
2022/08/18 08:22:22;;;;;;;3.45;2.40;;;;;;;34.96;33.43;101506.78;5089785;28;20116;-79
2022/08/18 08:25:04;;;;;;;2.60;2.40;;;;;;;37.40;31.12;101501.25;5073744;28;20051;-79
2022/08/18 08:27:36;;;;;;;4.80;2.47;;;;;;;39.24;29.41;101490.50;5073715;28;20047;-79
2022/08/18 08:30:10;;;;;;;4.88;2.80;;;;;;;39.26;28.10;101502.06;5059406;28;20044;-79
2022/08/18 08:32:44;;;;;;;5.15;2.38;;;;;;;39.58;26.65;101494.47;5056329;28;20105;-80
2022/08/18 08:35:16;;;;;;;3.25;2.33;;;;;;;38.45;29.32;101488.19;5066082;28;20047;-79
2022/08/18 08:37:51;;;;;;;2.42;2.20;;;;;;;37.05;29.88;101497.09;5054463;28;20016;-79
2022/08/18 08:41:14;;;;;;;5.18;2.42;;;;;;;37.42;31.54;101482.84;5071624;28;20051;-79
2022/08/18 08:43:48;;;;;;;3.25;2.05;;;;;;;36.47;31.96;101491.72;4990732;28;20045;-80
2022/08/18 08:46:21;;;;;;;2.92;1.92;;;;;;;35.50;33.26;101492.13;5060018;28;20500;-79
2022/08/18 08:48:52;;;;;;;5.50;2.50;;;;;;;35.55;33.02;101492.50;5055336;28;20035;-79
2022/08/18 08:51:30;;;;;;;3.83;2.15;;;;;;;34.67;34.98;101488.91;5054063;28;20058;-79
2022/08/18 08:54:07;;;;;;;5.70;2.67;;;;;;;34.44;35.74;101502.13;5075915;28;20028;-78
2022/08/18 08:56:39;;;;;;;2.90;1.90;;;;;;;33.48;36.52;101494.44;5089470;28;20036;-79
2022/08/18 08:59:07;;;;;;;;;;;;;;;33.82;36.84;101497.41;5074781;28;20039;-79
2022/08/18 09:01:41;;;;;;;4.25;2.03;;;;;;;33.41;37.64;101498.75;5089863;28;19965;-78
2022/08/18 09:04:30;;;;;;;2.67;2.17;;;;;;;31.13;40.56;101494.28;5069180;28;20123;-78
2022/08/18 09:07:20;;;;;;;3.35;2.10;;;;;;;32.26;38.80;101498.66;5067566;28;20564;-79
2022/08/18 09:09:58;;;;;;;5.35;2.33;;;;;;;32.34;38.33;101502.50;5071967;28;20036;-78
2022/08/18 09:12:24;;;;;;;3.72;2.58;;;;;;;32.42;38.52;101502.63;5091934;28;20046;-79
2022/08/18 09:15:14;;;;;;;2.30;2.05;;;;;;;33.07;37.65;101507.41;5070647;28;20056;-78
2022/08/18 09:18:13;;;;;;;4.60;2.45;;;;;;;33.92;36.26;101493.78;5092427;28;20032;-79
2022/08/18 09:21:17;;;;;;;2.75;2.30;;;;;;;34.77;33.94;101490.69;5077181;28;20024;-79
2022/08/18 09:23:46;;;;;;;4.25;2.00;;;;;;;35.70;32.86;101491.88;5074822;28;20130;-78
2022/08/18 09:26:26;;;;;;;3.03;1.92;;;;;;;36.79;32.05;101487.25;5068695;28;20484;-79
2022/08/18 09:28:56;;;;;;;4.18;2.28;;;;;;;34.31;35.81;101502.53;5057452;28;20028;-78
2022/08/18 09:31:22;;;;;;;2.00;1.80;;;;;;;37.10;33.51;101500.16;5056710;28;20050;-79
2022/08/18 09:34:06;;;;;;;4.65;1.90;;;;;;;37.38;30.13;101507.91;5060710;28;20028;-79
2022/08/18 09:37:09;;;;;;;4.70;4.30;;;;;;;36.41;32.10;101504.13;5076620;28;20415;-79
2022/08/18 09:42:38;;;;;;;4.07;3.13;;;;;;;35.33;33.71;101502.09;5083263;28;20048;-79
2022/08/18 09:45:26;;;;;;;1.58;1.48;;;;;;;34.30;33.47;101506.25;5054487;28;20033;-79
2022/08/18 09:47:51;;;;;;;1.80;1.48;;;;;;;33.76;35.47;101503.44;5040675;28;20040;-79
2022/08/18 09:50:27;;;;;;;1.73;1.52;;;;;;;34.26;34.08;101499.38;5051468;28;20032;-79
2022/08/18 09:52:56;;;;;;;2.15;1.48;;;;;;;34.07;34.30;101500.38;5073714;28;20020;-78
2022/08/18 09:55:22;;;;;;;3.45;2.17;;;;;;;33.92;34.51;101488.38;5059972;28;20104;-79
2022/08/18 09:58:16;;;;;;;1.88;1.65;;;;;;;36.44;31.22;101495.63;5035649;28;20079;-78
2022/08/18 10:00:42;;;;;;;2.60;1.70;;;;;;;36.59;31.13;101492.19;5070157;28;20033;-78
2022/08/18 10:03:16;;;;;;;3.20;2.00;;;;;;;38.04;29.08;101477.56;5056578;28;20075;-79
2022/08/18 10:05:58;;;;;;;1.85;1.65;;;;;;;38.36;28.76;101476.47;5041617;28;20047;-79
2022/08/18 10:08:35;;;;;;;2.58;1.80;;;;;;;36.09;31.49;101464.09;5036785;28;20025;-78
2022/08/18 10:11:50;;;;;;;6.63;2.25;;;;;;;35.56;32.73;101469.75;5036443;28;20024;-78
2022/08/18 10:14:24;;;;;;;2.78;2.00;;;;;;;36.03;32.22;101470.25;5033263;28;20032;-78
2022/08/18 10:16:55;;;;;;;2.28;1.92;;;;;;;34.77;33.79;101479.81;5035604;28;20041;-78
2022/08/18 10:19:40;;;;;;;2.60;2.20;;;;;;;35.94;32.77;101472.94;5035744;28;20029;-78
2022/08/18 10:22:08;;;;;;;2.50;2.30;;;;;;;34.48;32.86;101475.53;5035556;28;20272;-78
2022/08/18 10:24:50;;;;;;;2.58;2.38;;;;;;;35.81;31.80;101476.09;5040153;28;20029;-78
2022/08/18 10:27:47;;;;;;;3.13;2.50;;;;;;;33.00;36.24;101490.03;5071281;28;20054;-77
2022/08/18 10:30:31;;;;;;;4.88;2.92;;;;;;;34.47;35.01;101477.41;5016161;28;20094;-78
2022/08/18 10:32:58;;;;;;;6.00;3.55;;;;;;;33.93;35.09;101487.38;5036348;28;20506;-78
2022/08/18 10:35:36;;;;;;;10.70;5.38;;;;;;;33.14;37.44;101489.59;5035488;28;20040;-78
2022/08/18 10:38:09;;;;;;;13.48;9.40;;;;;;;33.02;36.97;101480.78;5035389;28;20034;-78
2022/08/18 10:40:35;;;;;;;8.88;5.40;;;;;;;34.67;34.45;101474.50;5053206;28;20025;-78
2022/08/18 10:43:09;;;;;;;4.22;3.35;;;;;;;33.88;34.96;101468.88;5053338;28;20063;-78
2022/08/18 10:45:47;;;;;;;6.40;4.43;;;;;;;34.43;34.47;101467.00;5035944;28;20098;-78
2022/08/18 10:48:20;;;;;;;4.90;4.40;;;;;;;34.05;35.50;101474.47;5035155;28;20024;-78
2022/08/18 10:51:14;;;;;;;5.60;2.72;;;;;;;33.44;36.10;101474.94;5043126;28;20028;-78
2022/08/18 10:54:03;;;;;;;3.33;3.00;;;;;;;33.44;35.90;101479.50;5053169;28;20058;-79
2022/08/18 10:56:44;;;;;;;3.42;2.45;;;;;;;32.83;36.84;101483.56;5067146;28;20031;-79
2022/08/18 10:59:50;;;;;;;3.25;2.25;;;;;;;34.07;34.56;101480.56;5035041;28;20155;-79
2022/08/18 11:02:53;;;;;;;3.08;2.55;;;;;;;35.05;33.83;101485.09;5034800;28;20025;-78
2022/08/18 11:05:23;;;;;;;4.65;2.72;;;;;;;34.66;33.90;101481.81;5035190;28;20039;-79
2022/08/18 11:08:05;;;;;;;5.03;3.22;;;;;;;35.15;32.91;101478.53;5035137;28;20025;-79
2022/08/18 11:10:49;;;;;;;4.03;2.60;;;;;;;35.23;31.98;101480.47;5040028;28;20039;-79
2022/08/18 11:13:53;;;;;;;2.72;2.53;;;;;;;35.03;33.54;101476.28;5055257;28;20491;-80
2022/08/18 11:17:01;;;;;;;2.53;1.85;;;;;;;37.27;30.72;101479.97;5065605;28;20492;-79
2022/08/18 11:19:27;;;;;;;2.88;2.08;;;;;;;35.04;32.74;101476.13;5041640;28;20037;-79
2022/08/18 11:21:53;;;;;;;2.55;1.80;;;;;;;33.40;34.76;101470.84;5034517;28;20028;-77
2022/08/18 11:24:27;;;;;;;2.40;1.88;;;;;;;33.52;32.70;101478.75;5035164;28;20033;-78
2022/08/18 11:27:20;;;;;;;2.13;1.77;;;;;;;35.11;32.36;101470.91;5060171;28;20064;-78
2022/08/18 11:29:45;;;;;;;2.35;2.03;;;;;;;34.97;33.19;101469.63;5040461;28;20167;-78
2022/08/18 11:32:30;;;;;;;3.95;2.42;;;;;;;35.56;32.26;101469.75;5050335;28;20496;-78
2022/08/18 11:34:58;;;;;;;4.85;2.35;;;;;;;35.53;31.64;101464.66;5072619;28;20055;-79
2022/08/18 11:37:25;;;;;;;4.30;2.30;;;;;;;36.06;31.89;101456.28;5040298;28;20025;-79
2022/08/18 11:39:53;;;;;;;2.75;2.00;;;;;;;36.82;29.09;101448.78;5043625;28;20024;-79
2022/08/18 11:42:27;;;;;;;2.13;1.50;;;;;;;37.59;28.40;101456.38;5048492;28;20066;-79
2022/08/18 11:45:00;;;;;;;2.72;1.75;;;;;;;36.21;30.25;101451.88;5071958;28;20025;-79
2022/08/18 11:47:26;;;;;;;3.05;2.08;;;;;;;35.28;32.40;101453.66;5054559;28;20031;-79
2022/08/18 11:49:56;;;;;;;3.38;2.28;;;;;;;35.78;30.47;101453.84;5053170;28;20028;-79
2022/08/18 11:52:27;;;;;;;3.60;1.95;;;;;;;35.31;30.82;101438.88;5055058;28;20058;-79
2022/08/18 11:55:03;;;;;;;4.15;1.75;;;;;;;34.77;30.14;101448.09;5054270;28;20085;-79
2022/08/18 11:57:39;;;;;;;3.58;2.28;;;;;;;36.74;28.44;101435.16;5053828;28;20091;-79
2022/08/18 12:00:37;;;;;;;2.42;2.00;;;;;;;36.12;29.59;101431.13;5087338;28;20028;-79